createdAt,value
2023-04-23T00:00:19.278Z,14.49
2023-04-23T00:02:46.988Z,14.70
2023-04-23T00:05:13.922Z,14.65
2023-04-23T00:07:41.687Z,14.50
2023-04-23T00:10:09.246Z,14.01
2023-04-23T00:12:35.980Z,14.55
2023-04-23T00:15:04.014Z,14.77
2023-04-23T00:17:30.469Z,14.18
2023-04-23T00:19:56.866Z,14.59
2023-04-23T00:22:23.239Z,14.57
2023-04-23T00:24:49.615Z,14.39
2023-04-23T00:27:17.975Z,14.12
2023-04-23T00:29:46.307Z,14.59
2023-04-23T00:32:14.543Z,14.57
2023-04-23T00:34:41.237Z,14.68
2023-04-23T00:37:07.911Z,14.24
2023-04-23T00:39:35.093Z,14.60
2023-04-23T00:42:07.004Z,13.76
2023-04-23T00:44:33.680Z,14.90
2023-04-23T00:47:00.643Z,14.61
2023-04-23T00:49:27.833Z,14.12
2023-04-23T00:51:54.165Z,14.57
2023-04-23T00:54:20.493Z,14.84
2023-04-23T00:56:47.278Z,14.40
2023-04-23T00:59:14.096Z,14.72
2023-04-23T01:01:41.136Z,14.66
2023-04-23T01:04:09.538Z,14.19
2023-04-23T01:06:36.266Z,14.61
2023-04-23T01:09:03.561Z,14.43
2023-04-23T01:11:30.398Z,13.35
2023-04-23T01:13:57.056Z,14.53
2023-04-23T01:16:23.464Z,14.49
2023-04-23T01:18:49.843Z,14.28
2023-04-23T01:21:17.118Z,13.84
2023-04-23T01:23:43.475Z,14.20
2023-04-23T01:26:10.800Z,13.98
2023-04-23T01:28:37.351Z,14.09
2023-04-23T01:31:04.118Z,14.07
2023-04-23T01:33:31.748Z,14.05
2023-04-23T01:35:59.239Z,14.13
2023-04-23T01:38:30.753Z,13.73
2023-04-23T01:40:57.085Z,13.91
2023-04-23T01:43:24.759Z,13.93
2023-04-23T01:45:51.448Z,13.75
2023-04-23T01:48:17.841Z,13.96
2023-04-23T01:50:44.345Z,13.34
2023-04-23T01:53:10.674Z,14.16
2023-04-23T01:55:39.297Z,14.31
2023-04-23T01:58:06.246Z,14.15
2023-04-23T02:00:32.850Z,14.11
2023-04-23T02:02:59.436Z,14.27
2023-04-23T02:05:28.755Z,14.11
2023-04-23T02:07:55.695Z,14.41
2023-04-23T02:10:22.184Z,13.96
2023-04-23T02:12:48.552Z,13.81
2023-04-23T02:15:15.746Z,14.38
2023-04-23T02:17:42.203Z,14.40
2023-04-23T02:20:10.227Z,14.39
2023-04-23T02:22:39.089Z,14.20
2023-04-23T02:25:07.209Z,14.30
2023-04-23T02:27:34.409Z,14.00
2023-04-23T02:30:00.717Z,13.98
2023-04-23T02:32:28.006Z,13.96
2023-04-23T02:34:54.406Z,13.72
2023-04-23T02:37:21.242Z,14.10
2023-04-23T02:39:47.581Z,13.96
2023-04-23T02:42:14.121Z,13.81
2023-04-23T02:44:40.770Z,13.75
2023-04-23T02:47:07.333Z,13.50
2023-04-23T02:49:33.682Z,13.96
2023-04-23T02:52:00.433Z,13.36
2023-04-23T02:54:26.781Z,13.44
2023-04-23T02:56:53.308Z,13.54
2023-04-23T02:59:19.727Z,13.86
2023-04-23T03:01:46.173Z,13.95
2023-04-23T03:04:12.779Z,13.75
2023-04-23T03:06:39.224Z,13.55
2023-04-23T03:09:05.590Z,14.00
2023-04-23T03:11:32.024Z,14.03
2023-04-23T03:13:58.493Z,13.34
2023-04-23T03:16:25.047Z,13.79
2023-04-23T03:18:51.460Z,13.20
2023-04-23T03:21:17.936Z,14.18
2023-04-23T03:23:44.299Z,14.04
2023-04-23T03:26:10.818Z,14.12
2023-04-23T03:28:37.189Z,13.62
2023-04-23T03:31:03.593Z,13.90
2023-04-23T03:33:29.981Z,14.06
2023-04-23T03:35:56.449Z,13.47
2023-04-23T03:38:22.825Z,13.65
2023-04-23T03:40:49.218Z,13.92
2023-04-23T03:43:15.550Z,13.85
2023-04-23T03:45:41.917Z,13.73
2023-04-23T03:48:08.266Z,14.16
2023-04-23T03:50:38.784Z,13.65
2023-04-23T03:53:05.186Z,14.08
2023-04-23T03:55:31.622Z,14.23
2023-04-23T03:58:00.333Z,14.26
2023-04-23T04:00:26.775Z,14.09
2023-04-23T04:02:53.249Z,14.15
2023-04-23T04:05:19.827Z,13.41
2023-04-23T04:07:46.244Z,13.33
2023-04-23T04:10:12.617Z,14.13
2023-04-23T04:12:39.818Z,14.00
2023-04-23T04:15:06.786Z,13.82
2023-04-23T04:17:33.220Z,13.94
2023-04-23T04:19:59.622Z,13.72
2023-04-23T04:22:26.129Z,13.66
2023-04-23T04:24:52.737Z,13.34
2023-04-23T04:27:19.148Z,13.85
2023-04-23T04:29:45.546Z,13.82
2023-04-23T04:32:13.577Z,13.49
2023-04-23T04:34:40.423Z,13.41
2023-04-23T04:37:07.630Z,13.52
2023-04-23T04:39:34.015Z,13.89
2023-04-23T04:42:02.815Z,14.00
2023-04-23T04:44:30.329Z,14.11
2023-04-23T04:46:56.799Z,14.19
2023-04-23T04:49:23.815Z,14.13
2023-04-23T04:51:50.204Z,14.20
2023-04-23T04:54:16.559Z,13.67
2023-04-23T04:56:42.953Z,14.31
2023-04-23T04:59:09.280Z,13.71
2023-04-23T05:01:37.113Z,14.13
2023-04-23T05:04:04.070Z,13.71
2023-04-23T05:06:32.226Z,14.43
2023-04-23T05:08:58.626Z,14.53
2023-04-23T05:11:24.991Z,14.39
2023-04-23T05:13:51.768Z,13.87
2023-04-23T05:16:18.345Z,14.02
2023-04-23T05:18:44.768Z,14.53
2023-04-23T05:21:11.118Z,14.44
2023-04-23T05:23:37.576Z,14.65
2023-04-23T05:26:04.266Z,14.44
2023-04-23T05:28:31.332Z,14.70
2023-04-23T05:30:58.343Z,14.64
2023-04-23T05:33:30.705Z,14.89
2023-04-23T05:35:59.717Z,14.93
2023-04-23T05:38:26.283Z,14.14
2023-04-23T05:40:52.775Z,14.75
2023-04-23T05:43:19.157Z,14.37
2023-04-23T05:45:45.608Z,14.63
2023-04-23T05:48:11.992Z,15.02
2023-04-23T05:50:38.470Z,14.93
2023-04-23T05:53:05.002Z,14.85
2023-04-23T05:55:31.555Z,14.30
2023-04-23T05:57:57.985Z,14.61
2023-04-23T06:00:24.330Z,14.58
2023-04-23T06:02:51.035Z,14.30
2023-04-23T06:05:18.057Z,14.31
2023-04-23T06:07:44.565Z,14.96
2023-04-23T06:10:11.455Z,14.76
2023-04-23T06:12:39.203Z,15.07
2023-04-23T06:15:07.180Z,14.96
2023-04-23T06:17:33.586Z,15.06
2023-04-23T06:19:59.956Z,15.21
2023-04-23T06:22:26.452Z,15.07
2023-04-23T06:24:52.986Z,15.07
2023-04-23T06:27:19.388Z,15.09
2023-04-23T06:29:45.699Z,14.59
2023-04-23T06:32:12.368Z,15.04
2023-04-23T06:34:46.711Z,15.20
2023-04-23T06:37:16.340Z,15.17
2023-04-23T06:39:42.704Z,15.22
2023-04-23T06:42:09.110Z,15.33
2023-04-23T06:44:35.492Z,15.24
2023-04-23T06:47:01.852Z,15.29
2023-04-23T06:49:28.286Z,15.15
2023-04-23T06:51:57.039Z,15.31
2023-04-23T06:54:24.195Z,15.29
2023-04-23T06:56:51.012Z,15.44
2023-04-23T06:59:17.404Z,15.42
2023-04-23T07:01:43.837Z,15.47
2023-04-23T07:04:10.244Z,15.57
2023-04-23T07:06:36.700Z,15.61
2023-04-23T07:09:03.183Z,15.88
2023-04-23T07:11:31.914Z,15.73
2023-04-23T07:13:58.519Z,15.66
2023-04-23T07:16:25.728Z,15.99
2023-04-23T07:18:52.073Z,15.92
2023-04-23T07:21:18.552Z,15.81
2023-04-23T07:23:44.969Z,15.98
2023-04-23T07:26:11.776Z,15.77
2023-04-23T07:28:38.142Z,15.43
2023-04-23T07:31:04.700Z,16.13
2023-04-23T07:33:31.197Z,16.21
2023-04-23T07:35:57.592Z,16.37
2023-04-23T07:38:24.057Z,16.31
2023-04-23T07:40:52.783Z,15.56
2023-04-23T07:43:19.289Z,16.53
2023-04-23T07:45:45.806Z,16.57
2023-04-23T07:48:12.256Z,16.41
2023-04-23T07:50:38.717Z,16.80
2023-04-23T07:53:05.083Z,16.33
2023-04-23T07:55:31.654Z,16.86
2023-04-23T07:57:58.026Z,16.45
2023-04-23T08:00:25.668Z,16.91
2023-04-23T08:02:53.404Z,16.69
2023-04-23T08:05:20.182Z,17.05
2023-04-23T08:07:46.550Z,17.10
2023-04-23T08:10:12.932Z,17.01
2023-04-23T08:12:39.293Z,17.12
2023-04-23T08:15:06.473Z,17.31
2023-04-23T08:17:32.857Z,17.17
2023-04-23T08:19:59.211Z,17.24
2023-04-23T08:22:25.610Z,17.43
2023-04-23T08:24:52.112Z,17.32
2023-04-23T08:27:18.451Z,17.38
2023-04-23T08:29:44.857Z,17.23
2023-04-23T08:32:11.380Z,17.23
2023-04-23T08:34:38.010Z,17.87
2023-04-23T08:37:04.907Z,17.66
2023-04-23T08:39:33.076Z,18.09
2023-04-23T08:42:18.711Z,18.08
2023-04-23T08:44:46.807Z,18.19
2023-04-23T08:47:17.870Z,17.94
2023-04-23T08:49:46.420Z,18.20
2023-04-23T08:52:20.429Z,18.44
2023-04-23T08:54:50.672Z,18.03
2023-04-23T08:57:18.057Z,18.58
2023-04-23T08:59:46.471Z,18.45
2023-04-23T09:02:15.863Z,18.46
2023-04-23T09:04:42.392Z,18.63
2023-04-23T09:07:11.320Z,19.00
2023-04-23T09:09:39.546Z,18.80
2023-04-23T09:12:07.551Z,19.14
2023-04-23T09:14:34.857Z,19.17
2023-04-23T09:17:03.104Z,18.78
2023-04-23T09:19:30.296Z,18.82
2023-04-23T09:21:58.617Z,19.11
2023-04-23T09:24:25.987Z,18.97
2023-04-23T09:26:52.943Z,19.62
2023-04-23T09:29:21.402Z,19.70
2023-04-23T09:31:52.960Z,19.87
2023-04-23T09:34:21.349Z,19.88
2023-04-23T09:36:50.574Z,19.52
2023-04-23T09:39:19.191Z,20.24
2023-04-23T09:41:46.475Z,20.27
2023-04-23T09:44:18.412Z,19.45
2023-04-23T09:46:46.450Z,19.85
2023-04-23T09:49:13.605Z,20.25
2023-04-23T09:51:44.422Z,20.42
2023-04-23T09:54:22.748Z,19.77
2023-04-23T09:56:51.240Z,20.65
2023-04-23T09:59:29.007Z,20.18
2023-04-23T10:02:04.504Z,20.05
2023-04-23T10:04:30.933Z,20.12
2023-04-23T10:07:17.250Z,20.58
2023-04-23T10:09:45.338Z,20.64
2023-04-23T10:12:28.976Z,20.73
2023-04-23T10:15:00.295Z,20.94
2023-04-23T10:17:27.210Z,20.77
2023-04-23T10:19:55.814Z,20.69
2023-04-23T10:22:22.852Z,21.63
2023-04-23T10:24:57.085Z,21.25
2023-04-23T10:27:40.633Z,21.00
2023-04-23T10:30:15.068Z,21.13
2023-04-23T10:32:42.125Z,21.39
2023-04-23T10:35:09.663Z,21.05
2023-04-23T10:37:37.353Z,21.47
2023-04-23T10:40:11.262Z,21.56
2023-04-23T10:42:39.563Z,21.98
2023-04-23T10:45:24.170Z,21.82
2023-04-23T10:47:54.671Z,21.31
2023-04-23T10:50:26.554Z,21.16
2023-04-23T10:52:54.695Z,20.79
2023-04-23T10:55:27.085Z,20.69
2023-04-23T10:58:00.836Z,20.98
2023-04-23T11:00:29.474Z,20.01
2023-04-23T11:02:56.220Z,20.87
2023-04-23T11:05:25.831Z,20.38
2023-04-23T11:08:18.999Z,20.87
2023-04-23T11:10:58.569Z,20.65
2023-04-23T11:13:32.292Z,21.06
2023-04-23T11:16:17.627Z,20.93
2023-04-23T11:18:58.118Z,20.84
2023-04-23T11:22:02.934Z,21.21
2023-04-23T11:24:31.401Z,21.08
2023-04-23T11:26:58.293Z,21.21
2023-04-23T11:29:26.980Z,20.83
2023-04-23T11:32:02.655Z,21.15
2023-04-23T11:34:30.262Z,20.69
2023-04-23T11:36:59.150Z,20.82
2023-04-23T11:39:26.760Z,20.95
2023-04-23T11:41:54.012Z,20.79
2023-04-23T11:44:21.653Z,20.88
2023-04-23T11:46:49.545Z,21.14
2023-04-23T11:49:18.621Z,21.31
2023-04-23T11:51:46.199Z,22.03
2023-04-23T11:54:13.425Z,21.63
2023-04-23T11:56:40.933Z,22.24
2023-04-23T11:59:07.789Z,22.09
2023-04-23T12:01:44.360Z,22.87
2023-04-23T12:04:19.484Z,23.71
2023-04-23T12:06:47.841Z,25.03
2023-04-23T12:09:15.924Z,24.70
2023-04-23T12:11:44.320Z,24.59
2023-04-23T12:14:12.543Z,24.91
2023-04-23T12:16:42.505Z,24.12
2023-04-23T12:19:26.723Z,24.34
2023-04-23T12:21:57.873Z,23.92
2023-04-23T12:24:29.937Z,23.42
2023-04-23T12:27:02.487Z,22.93
2023-04-23T12:29:32.102Z,23.11
2023-04-23T12:32:00.275Z,23.16
2023-04-23T12:34:26.863Z,23.46
2023-04-23T12:36:56.201Z,23.72
2023-04-23T12:39:36.246Z,23.25
2023-04-23T12:42:05.641Z,23.37
2023-04-23T12:44:34.695Z,23.19
2023-04-23T12:47:04.609Z,23.12
2023-04-23T12:49:32.243Z,22.56
2023-04-23T12:52:02.629Z,22.05
2023-04-23T12:54:34.481Z,22.35
2023-04-23T12:57:04.157Z,21.93
2023-04-23T12:59:31.350Z,22.32
2023-04-23T13:02:02.360Z,22.93
2023-04-23T13:04:30.491Z,23.13
2023-04-23T13:06:57.044Z,23.49
2023-04-23T13:09:26.876Z,22.98
2023-04-23T13:11:53.915Z,22.43
2023-04-23T13:14:21.221Z,22.61
2023-04-23T13:16:47.921Z,22.98
2023-04-23T13:19:16.138Z,22.77
2023-04-23T13:21:42.579Z,22.85
2023-04-23T13:24:08.956Z,22.83
2023-04-23T13:26:35.502Z,22.88
2023-04-23T13:29:02.724Z,22.74
2023-04-23T13:31:29.113Z,22.58
2023-04-23T13:33:56.080Z,23.16
2023-04-23T13:36:22.600Z,22.73
2023-04-23T13:38:49.011Z,23.15
2023-04-23T13:41:16.624Z,22.80
2023-04-23T13:43:42.998Z,22.88
2023-04-23T13:46:09.533Z,23.10
2023-04-23T13:48:35.902Z,22.63
2023-04-23T13:51:02.247Z,22.75
2023-04-23T13:53:28.776Z,22.50
2023-04-23T13:55:56.514Z,22.59
2023-04-23T13:58:23.829Z,22.29
2023-04-23T14:00:50.493Z,22.37
2023-04-23T14:03:17.217Z,22.38
2023-04-23T14:05:46.270Z,22.26
2023-04-23T14:08:13.023Z,22.16
2023-04-23T14:10:41.785Z,21.69
2023-04-23T14:13:09.924Z,21.43
2023-04-23T14:15:36.476Z,21.61
2023-04-23T14:18:02.955Z,22.02
2023-04-23T14:20:29.510Z,21.84
2023-04-23T14:23:01.780Z,22.10
2023-04-23T14:25:39.519Z,21.80
2023-04-23T14:28:21.132Z,21.74
2023-04-23T14:30:47.788Z,21.40
2023-04-23T14:33:14.100Z,20.26
2023-04-23T14:35:51.220Z,19.14
2023-04-23T14:38:28.991Z,18.32
2023-04-23T14:40:57.725Z,16.73
2023-04-23T14:43:24.193Z,16.85
2023-04-23T14:45:51.856Z,16.35
2023-04-23T14:48:18.313Z,16.34
2023-04-23T14:50:44.700Z,15.87
2023-04-23T14:53:11.201Z,16.16
2023-04-23T14:55:39.713Z,15.86
2023-04-23T14:58:06.323Z,16.13
2023-04-23T15:00:33.425Z,16.31
2023-04-23T15:03:02.644Z,16.23
2023-04-23T15:05:29.124Z,16.75
2023-04-23T15:07:55.445Z,16.75
2023-04-23T15:10:23.404Z,16.78
2023-04-23T15:13:31.709Z,16.93
2023-04-23T15:16:02.915Z,16.78
2023-04-23T15:18:29.606Z,16.49
2023-04-23T15:20:56.075Z,16.86
2023-04-23T15:23:24.126Z,16.33
2023-04-23T15:25:51.151Z,17.10
2023-04-23T15:28:17.833Z,16.96
2023-04-23T15:30:44.909Z,16.91
2023-04-23T15:33:11.345Z,17.21
2023-04-23T15:35:37.689Z,17.13
2023-04-23T15:38:04.034Z,17.29
2023-04-23T15:40:30.581Z,17.36
2023-04-23T15:42:56.920Z,17.54
2023-04-23T15:45:23.300Z,17.59
2023-04-23T15:47:51.634Z,17.57
2023-04-23T15:50:22.338Z,17.75
2023-04-23T15:52:50.429Z,18.29
2023-04-23T15:55:17.712Z,18.29
2023-04-23T15:57:44.116Z,18.22
2023-04-23T16:00:11.077Z,18.54
2023-04-23T16:02:37.807Z,18.44
2023-04-23T16:05:05.165Z,18.72
2023-04-23T16:07:31.558Z,18.80
2023-04-23T16:09:57.944Z,18.92
2023-04-23T16:12:24.291Z,18.80
2023-04-23T16:14:50.688Z,19.04
2023-04-23T16:17:17.212Z,18.92
2023-04-23T16:19:43.901Z,18.75
2023-04-23T16:22:10.605Z,19.06
2023-04-23T16:24:37.211Z,18.75
2023-04-23T16:27:06.168Z,19.31
2023-04-23T16:29:32.719Z,19.30
2023-04-23T16:31:59.035Z,18.83
2023-04-23T16:34:25.719Z,19.01
2023-04-23T16:36:52.154Z,19.13
2023-04-23T16:39:18.595Z,18.95
2023-04-23T16:41:45.023Z,18.80
2023-04-23T16:44:11.426Z,18.95
2023-04-23T16:46:37.909Z,18.42
2023-04-23T16:49:04.383Z,18.88
2023-04-23T16:51:32.343Z,18.95
2023-04-23T16:53:58.885Z,18.84
2023-04-23T16:56:25.732Z,18.54
2023-04-23T16:58:52.951Z,18.51
2023-04-23T17:01:19.374Z,18.79
2023-04-23T17:03:45.998Z,18.44
2023-04-23T17:06:25.961Z,18.54
2023-04-23T17:08:52.385Z,18.56
2023-04-23T17:11:18.825Z,18.68
2023-04-23T17:13:45.227Z,18.31
2023-04-23T17:16:12.026Z,18.47
2023-04-23T17:18:38.436Z,18.56
2023-04-23T17:21:04.900Z,18.79
2023-04-23T17:23:31.410Z,18.21
2023-04-23T17:25:57.762Z,18.12
2023-04-23T17:28:24.172Z,18.55
2023-04-23T17:30:50.699Z,18.48
2023-04-23T17:33:18.019Z,18.62
2023-04-23T17:35:44.585Z,18.27
2023-04-23T17:38:11.130Z,18.61
2023-04-23T17:40:39.294Z,18.03
2023-04-23T17:43:06.189Z,18.42
2023-04-23T17:45:32.599Z,18.15
2023-04-23T17:47:59.138Z,17.91
2023-04-23T17:50:25.768Z,18.26
2023-04-23T17:52:52.193Z,18.01
2023-04-23T17:55:21.769Z,18.01
2023-04-23T17:57:48.795Z,18.19
2023-04-23T18:00:17.486Z,18.36
2023-04-23T18:02:44.875Z,18.18
2023-04-23T18:05:13.775Z,17.74
2023-04-23T18:07:41.635Z,17.63
2023-04-23T18:10:08.675Z,17.03
2023-04-23T18:12:35.840Z,18.11
2023-04-23T18:15:02.573Z,17.65
2023-04-23T18:17:29.167Z,18.05
2023-04-23T18:19:55.531Z,18.21
2023-04-23T18:22:22.030Z,17.07
2023-04-23T18:24:50.312Z,17.76
2023-04-23T18:27:17.433Z,17.73
2023-04-23T18:29:44.508Z,18.18
2023-04-23T18:32:15.878Z,17.84
2023-04-23T18:34:47.625Z,17.74
2023-04-23T18:37:33.089Z,17.64
2023-04-23T18:40:00.132Z,17.62
2023-04-23T18:42:26.474Z,17.93
2023-04-23T18:44:52.861Z,17.30
2023-04-23T18:47:19.725Z,17.75
2023-04-23T18:49:52.659Z,17.97
2023-04-23T18:52:19.074Z,17.52
2023-04-23T18:54:45.482Z,16.48
2023-04-23T18:57:11.812Z,16.41
2023-04-23T18:59:38.222Z,16.91
2023-04-23T19:02:05.358Z,16.57
2023-04-23T19:04:35.090Z,16.68
2023-04-23T19:07:01.841Z,16.37
2023-04-23T19:09:28.745Z,16.42
2023-04-23T19:11:55.477Z,16.37
2023-04-23T19:14:22.096Z,16.33
2023-04-23T19:16:50.174Z,16.45
2023-04-23T19:19:17.283Z,16.55
2023-04-23T19:21:43.748Z,16.28
2023-04-23T19:24:10.206Z,15.37
2023-04-23T19:26:36.629Z,16.36
2023-04-23T19:29:03.708Z,15.96
2023-04-23T19:31:30.665Z,15.96
2023-04-23T19:33:57.334Z,16.11
2023-04-23T19:36:23.680Z,16.31
2023-04-23T19:38:50.177Z,15.38
2023-04-23T19:41:16.495Z,15.11
2023-04-23T19:43:43.104Z,15.02
2023-04-23T19:46:09.947Z,15.16
2023-04-23T19:48:43.907Z,14.36
2023-04-23T19:51:10.462Z,14.97
2023-04-23T19:53:37.084Z,15.09
2023-04-23T19:56:04.073Z,14.44
2023-04-23T19:58:30.411Z,14.49
2023-04-23T20:00:56.969Z,14.34
2023-04-23T20:03:23.820Z,13.54
2023-04-23T20:05:52.345Z,14.26
2023-04-23T20:08:26.152Z,13.79
2023-04-23T20:10:53.908Z,13.95
2023-04-23T20:13:21.210Z,14.34
2023-04-23T20:15:49.842Z,13.52
2023-04-23T20:18:16.902Z,13.45
2023-04-23T20:20:45.620Z,13.66
2023-04-23T20:23:12.027Z,14.21
2023-04-23T20:25:38.474Z,13.83
2023-04-23T20:28:05.049Z,14.21
2023-04-23T20:30:31.390Z,14.77
2023-04-23T20:32:58.138Z,13.69
2023-04-23T20:35:24.661Z,13.73
2023-04-23T20:37:52.879Z,14.32
2023-04-23T20:40:19.468Z,14.01
2023-04-23T20:42:46.498Z,13.71
2023-04-23T20:45:14.285Z,13.86
2023-04-23T20:47:41.240Z,14.09
2023-04-23T20:50:08.333Z,13.77
2023-04-23T20:52:34.724Z,13.24
2023-04-23T20:55:01.061Z,13.76
2023-04-23T20:57:27.454Z,14.12
2023-04-23T20:59:53.820Z,13.96
2023-04-23T21:02:20.464Z,13.96
2023-04-23T21:04:46.987Z,13.85
2023-04-23T21:07:13.449Z,13.85
2023-04-23T21:09:39.837Z,14.33
2023-04-23T21:12:06.307Z,14.14
2023-04-23T21:14:33.308Z,13.68
2023-04-23T21:16:59.835Z,14.14
2023-04-23T21:19:26.246Z,13.36
2023-04-23T21:21:52.633Z,14.10
2023-04-23T21:24:19.060Z,13.83
2023-04-23T21:26:45.470Z,13.54
2023-04-23T21:29:11.899Z,14.11
2023-04-23T21:31:43.699Z,13.52
2023-04-23T21:34:10.115Z,14.42
2023-04-23T21:36:36.590Z,14.29
2023-04-23T21:39:03.142Z,14.50
2023-04-23T21:41:29.646Z,13.85
2023-04-23T21:43:56.280Z,14.24
2023-04-23T21:46:23.695Z,13.42
2023-04-23T21:48:53.643Z,14.42
2023-04-23T21:51:21.872Z,14.37
2023-04-23T21:53:49.015Z,14.24
2023-04-23T21:56:16.090Z,14.25
2023-04-23T21:58:42.920Z,14.50
2023-04-23T22:01:09.334Z,13.85
2023-04-23T22:03:38.529Z,14.55
2023-04-23T22:06:05.670Z,14.29
2023-04-23T22:08:32.870Z,14.09
2023-04-23T22:10:59.371Z,14.46
2023-04-23T22:13:25.852Z,14.48
2023-04-23T22:15:52.363Z,14.45
2023-04-23T22:18:18.851Z,14.66
2023-04-23T22:20:48.178Z,14.11
2023-04-23T22:23:15.415Z,14.57
2023-04-23T22:25:42.010Z,14.51
2023-04-23T22:28:08.550Z,14.52
2023-04-23T22:30:34.891Z,15.01
2023-04-23T22:33:01.362Z,15.04
2023-04-23T22:35:28.143Z,14.89
2023-04-23T22:37:54.544Z,14.48
2023-04-23T22:40:21.444Z,15.30
2023-04-23T22:42:47.870Z,14.82
2023-04-23T22:45:14.240Z,15.32
2023-04-23T22:47:40.870Z,15.14
2023-04-23T22:50:08.934Z,14.70
2023-04-23T22:52:35.468Z,15.27
2023-04-23T22:55:02.053Z,14.66
2023-04-23T22:57:28.568Z,15.27
2023-04-23T22:59:55.059Z,15.01
2023-04-23T23:02:21.525Z,15.37
2023-04-23T23:04:47.955Z,15.39
2023-04-23T23:07:14.954Z,14.52
2023-04-23T23:09:41.542Z,15.14
2023-04-23T23:12:09.016Z,15.33
2023-04-23T23:14:37.809Z,15.47
2023-04-23T23:17:06.351Z,15.29
2023-04-23T23:19:32.860Z,15.15
2023-04-23T23:21:59.335Z,15.19
2023-04-23T23:24:25.913Z,14.95
2023-04-23T23:26:52.311Z,14.74
2023-04-23T23:29:18.792Z,14.37
2023-04-23T23:31:45.355Z,14.60
2023-04-23T23:34:12.030Z,14.36
2023-04-23T23:36:38.501Z,14.80
2023-04-23T23:39:05.374Z,14.63
2023-04-23T23:41:31.761Z,14.75
2023-04-23T23:43:58.133Z,14.83
2023-04-23T23:46:25.429Z,14.54
2023-04-23T23:48:51.832Z,14.14
2023-04-23T23:51:18.195Z,14.02
2023-04-23T23:53:44.732Z,13.82
2023-04-23T23:56:11.086Z,14.13
2023-04-23T23:58:37.417Z,13.86
